Time;durP1;ratioP1;P1;durP2;ratioP2;P2;SDS_P1;SDS_P2;PMS_P1;PMS_P2;Temp;Humidity;BMP_temperature;BMP_pressure;BME280_temperature;BME280_humidity;BME280_pressure;Samples;Min_cycle;Max_cycle;Signal;HPM_P1;HPM_P2
2024/02/13 00:00:21;;;;;;;23.30;8.70;;;;;;;5.64;95.99;99625.73;109862;1268;22556;-80
2024/02/13 00:03:40;;;;;;;26.10;8.70;;;;;;;5.65;96.03;99624.50;109422;1268;22612;-80
2024/02/13 00:06:27;;;;;;;24.50;8.20;;;;;;;5.66;96.15;99634.90;109638;1264;22539;-79
2024/02/13 00:09:14;;;;;;;21.80;8.40;;;;;;;5.67;96.11;99638.88;109626;1262;23723;-80
2024/02/13 00:12:03;;;;;;;27.00;8.70;;;;;;;5.69;96.14;99639.33;109595;1268;22518;-80
2024/02/13 00:14:51;;;;;;;22.00;7.90;;;;;;;5.70;96.15;99641.19;109711;1265;24246;-80
2024/02/13 00:17:41;;;;;;;26.80;9.30;;;;;;;5.72;96.09;99640.98;109836;1268;23640;-80
2024/02/13 00:20:29;;;;;;;25.10;9.40;;;;;;;5.73;96.20;99639.73;109670;1268;22580;-80
2024/02/13 00:23:17;;;;;;;28.10;10.80;;;;;;;5.73;96.23;99639.40;109644;1263;24340;-80
2024/02/13 00:26:08;;;;;;;23.90;9.30;;;;;;;5.74;96.20;99642.85;109532;1260;22594;-83
2024/02/13 00:28:56;;;;;;;23.60;8.90;;;;;;;5.74;96.22;99641.27;109687;1269;22554;-81
2024/02/13 00:31:44;;;;;;;25.00;8.60;;;;;;;5.73;96.24;99641.52;109514;1268;22640;-79
2024/02/13 00:34:31;;;;;;;22.90;8.00;;;;;;;5.74;96.28;99649.41;109609;1268;22557;-80
2024/02/13 00:37:19;;;;;;;27.50;8.60;;;;;;;5.76;96.33;99652.02;109874;1268;22569;-81
2024/02/13 00:40:09;;;;;;;27.10;9.00;;;;;;;5.80;96.40;99657.75;109709;1261;24190;-80
2024/02/13 00:42:57;;;;;;;23.30;8.00;;;;;;;5.80;96.42;99660.63;109741;1263;22554;-81
2024/02/13 00:45:45;;;;;;;25.30;8.70;;;;;;;5.81;96.46;99669.94;109809;1260;22552;-80
2024/02/13 00:48:34;;;;;;;23.20;8.00;;;;;;;5.83;96.49;99669.72;109755;1263;22538;-80
2024/02/13 00:51:21;;;;;;;25.30;9.20;;;;;;;5.85;96.53;99677.27;109942;1268;22564;-82
2024/02/13 00:54:13;;;;;;;23.00;7.80;;;;;;;5.86;96.51;99684.34;109079;1268;22932;-80
2024/02/13 00:57:02;;;;;;;24.50;8.30;;;;;;;5.86;96.47;99685.17;109211;1268;24176;-80
2024/02/13 00:59:50;;;;;;;23.90;8.40;;;;;;;5.86;96.58;99685.42;109182;1268;25375;-80
2024/02/13 01:02:38;;;;;;;22.70;8.00;;;;;;;5.88;96.69;99687.47;109009;1263;26618;-81
2024/02/13 01:05:26;;;;;;;20.40;6.50;;;;;;;5.89;96.64;99687.45;109266;1260;22626;-79
2024/02/13 01:08:13;;;;;;;21.70;7.50;;;;;;;5.88;96.67;99689.55;108974;1263;22543;-81
2024/02/13 01:11:02;;;;;;;20.80;7.80;;;;;;;5.87;96.67;99690.68;109269;1268;22518;-80
2024/02/13 01:13:51;;;;;;;21.10;7.80;;;;;;;5.86;96.58;99688.98;108884;1269;22666;-80
2024/02/13 01:16:40;;;;;;;23.20;8.40;;;;;;;5.84;96.58;99691.92;109004;1269;23400;-80
2024/02/13 01:19:27;;;;;;;20.00;6.50;;;;;;;5.82;96.56;99688.10;109182;1268;22543;-80
2024/02/13 01:22:15;;;;;;;24.70;8.40;;;;;;;5.79;96.45;99689.11;109177;1263;22535;-81
2024/02/13 01:25:05;;;;;;;26.30;10.30;;;;;;;5.75;96.51;99692.73;109005;1268;25410;-80
2024/02/13 01:27:52;;;;;;;22.20;9.30;;;;;;;5.73;96.51;99697.65;109100;1255;23205;-80
2024/02/13 01:30:39;;;;;;;25.00;9.30;;;;;;;5.70;96.62;99701.34;109203;1268;24341;-80
2024/02/13 01:33:27;;;;;;;23.30;8.00;;;;;;;5.65;96.68;99706.22;109230;1261;22549;-80
2024/02/13 01:36:17;;;;;;;23.80;8.60;;;;;;;5.61;96.75;99711.07;109193;1268;22546;-80
2024/02/13 01:39:05;;;;;;;23.50;9.50;;;;;;;5.57;96.88;99713.44;109177;1266;22591;-80
2024/02/13 01:41:53;;;;;;;23.80;8.20;;;;;;;5.53;96.92;99715.73;109138;1266;22571;-81
2024/02/13 01:44:41;;;;;;;22.20;8.80;;;;;;;5.50;97.18;99719.20;109336;1253;22624;-81
2024/02/13 01:47:30;;;;;;;27.90;9.80;;;;;;;5.47;97.39;99721.67;109229;1268;23774;-81
2024/02/13 01:50:20;;;;;;;24.40;8.20;;;;;;;5.44;97.43;99722.29;109139;1263;22692;-82
2024/02/13 01:53:07;;;;;;;30.80;9.20;;;;;;;5.41;97.52;99727.75;109082;1268;23126;-80
2024/02/13 01:55:57;;;;;;;25.70;9.80;;;;;;;5.40;97.94;99735.56;108877;1269;22606;-81
2024/02/13 01:58:45;;;;;;;25.90;9.70;;;;;;;5.41;98.31;99739.16;108854;1269;22531;-80
2024/02/13 02:01:33;;;;;;;28.80;9.80;;;;;;;5.45;98.81;99739.88;109112;1267;22631;-81
2024/02/13 02:04:22;;;;;;;24.10;10.50;;;;;;;5.50;98.82;99744.58;109183;1268;24323;-81
2024/02/13 02:07:11;;;;;;;29.40;11.10;;;;;;;5.53;98.72;99747.14;109506;1267;22533;-81
2024/02/13 02:09:59;;;;;;;;;;;;;;;5.55;98.74;99751.15;109182;1268;22578;-80
2024/02/13 02:12:49;;;;;;;26.20;10.90;;;;;;;5.57;98.68;99748.96;108883;1268;22555;-80
2024/02/13 02:15:37;;;;;;;22.50;7.80;;;;;;;5.59;98.84;99752.30;109194;1268;22543;-80
2024/02/13 02:18:26;;;;;;;29.50;11.00;;;;;;;5.61;98.72;99755.84;109162;1267;22560;-80
2024/02/13 02:21:14;;;;;;;23.80;9.70;;;;;;;5.61;98.58;99757.71;109238;1266;22548;-80
2024/02/13 02:24:02;;;;;;;27.70;9.10;;;;;;;5.61;98.29;99762.15;109273;1263;23376;-80
2024/02/13 02:26:50;;;;;;;24.10;9.10;;;;;;;5.60;98.16;99767.29;109158;1261;22559;-81
2024/02/13 02:29:38;;;;;;;29.30;10.00;;;;;;;5.56;98.05;99767.64;109228;1268;25356;-81
2024/02/13 02:32:28;;;;;;;25.10;8.80;;;;;;;5.54;98.00;99774.70;109235;1268;25343;-81
2024/02/13 02:35:16;;;;;;;31.70;10.60;;;;;;;5.51;98.02;99776.39;109298;1260;25396;-81
2024/02/13 02:38:05;;;;;;;26.10;9.80;;;;;;;5.49;98.00;99776.47;109301;1268;22548;-83
2024/02/13 02:40:52;;;;;;;26.80;9.00;;;;;;;5.47;98.12;99780.04;109134;1268;23248;-81
2024/02/13 02:43:41;;;;;;;25.40;9.90;;;;;;;5.47;98.20;99781.48;109033;1269;24234;-80
2024/02/13 02:46:28;;;;;;;24.70;10.00;;;;;;;5.46;98.28;99788.30;109208;1263;23927;-80
2024/02/13 02:49:17;;;;;;;26.20;9.90;;;;;;;5.46;98.40;99791.32;109219;1268;22551;-81
2024/02/13 02:52:07;;;;;;;27.40;8.60;;;;;;;5.46;98.38;99796.35;109246;1268;22556;-81
2024/02/13 02:54:55;;;;;;;;;;;;;;;5.46;98.46;99798.27;109166;1269;23224;-81
2024/02/13 02:57:42;;;;;;;27.70;9.20;;;;;;;5.46;98.48;99808.02;109214;1268;23939;-80
2024/02/13 03:00:30;;;;;;;24.20;8.60;;;;;;;5.44;98.53;99811.64;109371;1267;22575;-81
2024/02/13 03:03:20;;;;;;;22.00;8.00;;;;;;;5.44;98.57;99812.92;109302;1267;23713;-80
2024/02/13 03:06:08;;;;;;;26.00;9.20;;;;;;;5.44;98.67;99815.35;109273;1268;22577;-81
2024/02/13 03:08:56;;;;;;;21.90;7.80;;;;;;;5.45;98.61;99820.63;109275;1266;24156;-81
2024/02/13 03:11:44;;;;;;;25.00;9.20;;;;;;;5.46;98.58;99827.85;109232;1263;22589;-81
2024/02/13 03:14:32;;;;;;;22.70;8.70;;;;;;;5.45;98.54;99832.22;109283;1262;22567;-81
2024/02/13 03:17:21;;;;;;;22.90;7.80;;;;;;;5.45;98.44;99836.21;109128;1260;23312;-81
2024/02/13 03:20:12;;;;;;;25.50;8.50;;;;;;;5.45;98.43;99843.11;109438;1268;23706;-81
2024/02/13 03:23:00;;;;;;;23.10;9.30;;;;;;;5.43;98.37;99843.97;109249;1268;22728;-81
2024/02/13 03:25:48;;;;;;;24.40;8.20;;;;;;;5.41;98.39;99850.60;108796;1269;22570;-80
2024/02/13 03:28:37;;;;;;;24.20;8.50;;;;;;;5.40;98.38;99854.59;108930;1269;22518;-80
2024/02/13 03:31:24;;;;;;;20.50;7.80;;;;;;;5.39;98.36;99862.30;109102;1268;23929;-81
2024/02/13 03:34:12;;;;;;;21.10;8.00;;;;;;;5.37;98.26;99862.63;109093;1268;25412;-82
2024/02/13 03:36:59;;;;;;;20.80;6.40;;;;;;;5.34;98.10;99870.00;109134;1267;22594;-81
2024/02/13 03:39:48;;;;;;;18.30;7.00;;;;;;;5.32;97.84;99875.15;109172;1267;22543;-81
2024/02/13 03:42:37;;;;;;;20.40;5.80;;;;;;;5.30;97.67;99883.23;109156;1268;22563;-83
2024/02/13 03:45:24;;;;;;;25.00;7.40;;;;;;;5.29;97.54;99889.43;109217;1268;25320;-81
2024/02/13 03:48:12;;;;;;;22.60;6.70;;;;;;;5.28;97.66;99900.67;109149;1268;22545;-80
2024/02/13 03:50:59;;;;;;;20.00;5.70;;;;;;;5.28;97.70;99908.83;109146;1269;22515;-81
2024/02/13 03:53:48;;;;;;;20.10;7.20;;;;;;;5.29;97.72;99907.14;109200;1264;22778;-81
2024/02/13 03:56:37;;;;;;;21.00;7.50;;;;;;;5.29;97.77;99912.80;109213;1247;24214;-81
2024/02/13 03:59:27;;;;;;;22.90;6.90;;;;;;;5.29;97.76;99919.08;108959;1268;24186;-80
2024/02/13 04:02:15;;;;;;;24.60;7.00;;;;;;;5.29;97.81;99926.17;109128;1268;22823;-80
2024/02/13 04:05:04;;;;;;;21.30;6.80;;;;;;;5.29;97.70;99929.43;109176;1268;23908;-83
2024/02/13 04:07:54;;;;;;;19.70;7.40;;;;;;;5.27;97.69;99934.48;109033;1269;25364;-81
2024/02/13 04:10:42;;;;;;;18.60;6.10;;;;;;;5.25;97.62;99937.63;108862;1269;24210;-81
2024/02/13 04:13:30;;;;;;;19.30;6.00;;;;;;;5.23;97.64;99938.40;109240;1268;22542;-80
2024/02/13 04:16:18;;;;;;;17.60;5.80;;;;;;;5.22;97.43;99943.13;109287;1268;23247;-81
2024/02/13 04:19:06;;;;;;;20.90;6.00;;;;;;;5.19;97.41;99944.41;109285;1263;22532;-81
2024/02/13 04:21:54;;;;;;;21.30;6.30;;;;;;;5.18;97.41;99945.88;109238;1268;22548;-81
2024/02/13 04:24:41;;;;;;;19.20;6.20;;;;;;;5.16;97.44;99953.92;108944;1265;22530;-81
2024/02/13 04:27:29;;;;;;;16.90;5.90;;;;;;;5.14;97.45;99954.14;109284;1264;26638;-80
2024/02/13 04:30:16;;;;;;;17.30;5.10;;;;;;;5.15;97.42;99952.79;109310;1266;22572;-80
2024/02/13 04:33:08;;;;;;;14.40;4.60;;;;;;;5.14;97.34;99954.94;109178;1268;24218;-80
2024/02/13 04:35:55;;;;;;;15.20;5.10;;;;;;;5.14;97.30;99961.36;109159;1268;22525;-80
2024/02/13 04:38:43;;;;;;;16.60;5.10;;;;;;;5.12;97.16;99966.81;109116;1268;22549;-81
2024/02/13 04:41:31;;;;;;;18.80;5.40;;;;;;;5.10;97.11;99972.89;109259;1246;22590;-81
2024/02/13 04:44:20;;;;;;;15.00;4.70;;;;;;;5.08;97.16;99978.19;109155;1260;25119;-81
2024/02/13 04:47:08;;;;;;;16.60;4.80;;;;;;;5.05;97.07;99974.48;109203;1260;22567;-81
2024/02/13 04:49:56;;;;;;;14.30;4.40;;;;;;;5.04;97.14;99982.64;108523;1269;25271;-80
2024/02/13 04:52:44;;;;;;;15.20;4.10;;;;;;;5.04;97.26;99989.77;108641;1268;24355;-79
2024/02/13 04:55:34;;;;;;;18.40;5.20;;;;;;;5.04;97.43;99987.47;108785;1256;25415;-80
2024/02/13 04:58:23;;;;;;;15.20;4.90;;;;;;;5.06;97.50;99997.60;108670;1268;26549;-80
2024/02/13 05:01:12;;;;;;;18.40;6.40;;;;;;;5.07;97.53;99996.16;108750;1268;24243;-80
2024/02/13 05:07:21;;;;;;;20.30;7.00;;;;;;;5.07;97.52;100001.45;108542;1268;22521;-81
2024/02/13 05:10:09;;;;;;;21.50;6.40;;;;;;;5.08;97.62;100006.81;108723;1268;22635;-80
2024/02/13 05:12:57;;;;;;;23.70;6.70;;;;;;;5.08;97.62;100011.54;109124;1263;22637;-80
2024/02/13 05:15:46;;;;;;;23.70;7.40;;;;;;;5.07;97.70;100012.58;109152;1263;22538;-81
2024/02/13 05:18:34;;;;;;;20.90;6.10;;;;;;;5.08;97.79;100021.80;109221;1263;22533;-81
2024/02/13 05:21:21;;;;;;;22.70;6.70;;;;;;;5.08;97.80;100019.83;109196;1268;22537;-81
2024/02/13 05:24:11;;;;;;;20.10;6.70;;;;;;;5.09;97.74;100029.75;109163;1264;22516;-82
2024/02/13 05:26:59;;;;;;;20.00;6.70;;;;;;;5.10;97.70;100026.09;109097;1268;22995;-80
2024/02/13 05:29:47;;;;;;;23.50;5.50;;;;;;;5.09;97.58;100027.60;109081;1268;25373;-82
2024/02/13 05:32:36;;;;;;;22.30;7.10;;;;;;;5.08;97.57;100032.23;109114;1268;22546;-81
2024/02/13 05:35:24;;;;;;;22.70;8.40;;;;;;;5.08;97.57;100036.11;109180;1261;22610;-81
2024/02/13 05:38:12;;;;;;;21.90;6.90;;;;;;;5.07;97.63;100044.86;109242;1259;22571;-81
2024/02/13 05:41:00;;;;;;;24.00;7.90;;;;;;;5.04;97.61;100042.90;109137;1267;24306;-80
2024/02/13 05:43:48;;;;;;;21.20;7.20;;;;;;;5.02;97.61;100049.02;109219;1269;24234;-81
2024/02/13 05:46:37;;;;;;;21.50;7.90;;;;;;;5.00;97.69;100054.80;108922;1269;22573;-81
2024/02/13 05:49:24;;;;;;;25.10;7.40;;;;;;;4.99;97.91;100063.23;109161;1263;22560;-80
2024/02/13 05:52:12;;;;;;;27.00;8.90;;;;;;;5.00;98.03;100066.52;109702;1268;23777;-80
2024/02/13 05:54:59;;;;;;;22.00;7.70;;;;;;;5.01;98.06;100073.91;109030;1267;23882;-81
2024/02/13 05:57:47;;;;;;;24.50;8.80;;;;;;;5.01;97.94;100076.59;108917;1268;22561;-81
2024/02/13 06:00:37;;;;;;;25.50;8.30;;;;;;;5.02;97.83;100081.14;109476;1268;22645;-88
2024/02/13 06:03:32;;;;;;;23.40;7.00;;;;;;;5.03;97.93;100083.34;110363;1267;22533;-89
2024/02/13 06:06:23;;;;;;;24.00;8.00;;;;;;;5.04;97.84;100087.02;111020;1268;22565;-87
2024/02/13 06:09:20;;;;;;;24.10;8.40;;;;;;;5.04;97.70;100092.06;111094;1266;22185;-88
2024/02/13 06:12:10;;;;;;;23.50;8.80;;;;;;;5.03;97.73;100098.55;111486;1262;22165;-88
2024/02/13 06:15:02;;;;;;;25.40;8.90;;;;;;;5.02;97.50;100094.59;111478;1265;22127;-88
2024/02/13 06:17:56;;;;;;;26.10;8.10;;;;;;;5.00;97.50;100099.45;111101;1268;22148;-87
2024/02/13 06:20:45;;;;;;;;;;;;;;;4.99;97.46;100104.14;111259;1266;22503;-88
2024/02/13 06:23:41;;;;;;;22.50;7.40;;;;;;;4.97;97.46;100117.19;111509;1268;22113;-88
2024/02/13 06:26:34;;;;;;;21.40;7.20;;;;;;;4.96;97.50;100122.05;110986;1261;23298;-87
2024/02/13 06:29:30;;;;;;;23.10;7.10;;;;;;;4.95;97.47;100125.61;111164;1262;25234;-89
2024/02/13 06:32:22;;;;;;;24.90;7.90;;;;;;;4.94;97.48;100128.83;111451;1262;22119;-88
2024/02/13 06:35:13;;;;;;;24.80;7.80;;;;;;;4.92;97.41;100133.93;111137;1263;22586;-87
2024/02/13 06:38:03;;;;;;;23.40;8.70;;;;;;;4.90;97.38;100133.67;111278;1268;22167;-86
2024/02/13 06:40:53;;;;;;;18.50;7.00;;;;;;;4.89;97.50;100139.41;110259;1269;22550;-88
2024/02/13 06:43:45;;;;;;;28.60;9.00;;;;;;;4.87;97.50;100143.25;109322;1267;22535;-87
2024/02/13 06:46:36;;;;;;;26.50;8.80;;;;;;;4.86;97.43;100144.15;109182;1269;25442;-86
2024/02/13 06:49:26;;;;;;;21.10;7.30;;;;;;;4.84;97.41;100152.12;111448;1266;22198;-87
2024/02/13 06:52:16;;;;;;;27.80;9.00;;;;;;;4.82;97.57;100149.98;111433;1265;22088;-88
2024/02/13 06:55:10;;;;;;;25.40;9.20;;;;;;;4.80;97.47;100155.25;111425;1266;22327;-88
2024/02/13 06:57:59;;;;;;;21.80;7.30;;;;;;;4.79;97.56;100158.05;111432;1266;23130;-88
2024/02/13 07:00:51;;;;;;;23.90;8.80;;;;;;;4.78;97.57;100157.98;111284;1265;22152;-88
